sensor_id;sensor_type;location;lat;lon;timestamp;P1;durP1;ratioP1;P2;durP2;ratioP2
39882;SDS011;55824;52.220;21.040;2023-02-28T00:00:35;7.07;;;4.68;;
39882;SDS011;55824;52.220;21.040;2023-02-28T00:03:02;5.82;;;4.40;;
39882;SDS011;55824;52.220;21.040;2023-02-28T00:05:28;6.28;;;4.50;;
39882;SDS011;55824;52.220;21.040;2023-02-28T00:07:54;6.90;;;4.80;;
39882;SDS011;55824;52.220;21.040;2023-02-28T00:10:22;7.07;;;5.00;;
39882;SDS011;55824;52.220;21.040;2023-02-28T00:12:51;5.70;;;4.25;;
39882;SDS011;55824;52.220;21.040;2023-02-28T00:15:18;7.65;;;5.13;;
39882;SDS011;55824;52.220;21.040;2023-02-28T00:17:44;6.78;;;4.90;;
39882;SDS011;55824;52.220;21.040;2023-02-28T00:20:11;9.30;;;4.35;;
39882;SDS011;55824;52.220;21.040;2023-02-28T00:22:38;6.70;;;4.55;;
39882;SDS011;55824;52.220;21.040;2023-02-28T00:25:05;6.88;;;4.97;;
39882;SDS011;55824;52.220;21.040;2023-02-28T00:27:32;6.82;;;4.75;;
39882;SDS011;55824;52.220;21.040;2023-02-28T00:29:58;5.78;;;4.25;;
39882;SDS011;55824;52.220;21.040;2023-02-28T00:32:24;6.93;;;4.80;;
39882;SDS011;55824;52.220;21.040;2023-02-28T00:34:50;5.75;;;4.55;;
39882;SDS011;55824;52.220;21.040;2023-02-28T00:37:16;6.60;;;4.85;;
39882;SDS011;55824;52.220;21.040;2023-02-28T00:39:42;5.22;;;3.95;;
39882;SDS011;55824;52.220;21.040;2023-02-28T00:42:08;7.05;;;4.28;;
39882;SDS011;55824;52.220;21.040;2023-02-28T00:44:34;6.22;;;4.25;;
39882;SDS011;55824;52.220;21.040;2023-02-28T00:47:00;6.78;;;4.65;;
39882;SDS011;55824;52.220;21.040;2023-02-28T00:49:26;6.45;;;4.72;;
39882;SDS011;55824;52.220;21.040;2023-02-28T00:51:53;7.03;;;4.43;;
39882;SDS011;55824;52.220;21.040;2023-02-28T00:54:19;5.80;;;4.25;;
39882;SDS011;55824;52.220;21.040;2023-02-28T00:56:45;6.20;;;4.55;;
39882;SDS011;55824;52.220;21.040;2023-02-28T00:59:12;6.05;;;4.60;;
39882;SDS011;55824;52.220;21.040;2023-02-28T01:01:38;6.53;;;4.53;;
39882;SDS011;55824;52.220;21.040;2023-02-28T01:04:04;8.07;;;4.57;;
39882;SDS011;55824;52.220;21.040;2023-02-28T01:06:31;6.40;;;4.47;;
39882;SDS011;55824;52.220;21.040;2023-02-28T01:08:57;6.78;;;4.38;;
39882;SDS011;55824;52.220;21.040;2023-02-28T01:11:23;6.40;;;4.40;;
39882;SDS011;55824;52.220;21.040;2023-02-28T01:13:49;5.18;;;4.40;;
39882;SDS011;55824;52.220;21.040;2023-02-28T01:16:15;6.07;;;4.18;;
39882;SDS011;55824;52.220;21.040;2023-02-28T01:18:41;5.57;;;4.38;;
39882;SDS011;55824;52.220;21.040;2023-02-28T01:21:08;5.95;;;4.20;;
39882;SDS011;55824;52.220;21.040;2023-02-28T01:23:35;5.90;;;4.53;;
39882;SDS011;55824;52.220;21.040;2023-02-28T01:26:05;5.88;;;4.28;;
39882;SDS011;55824;52.220;21.040;2023-02-28T01:28:31;7.18;;;4.43;;
39882;SDS011;55824;52.220;21.040;2023-02-28T01:30:57;6.28;;;4.15;;
39882;SDS011;55824;52.220;21.040;2023-02-28T01:33:23;7.22;;;4.50;;
39882;SDS011;55824;52.220;21.040;2023-02-28T01:35:49;6.28;;;4.43;;
39882;SDS011;55824;52.220;21.040;2023-02-28T01:38:15;6.55;;;4.25;;
39882;SDS011;55824;52.220;21.040;2023-02-28T01:40:41;5.82;;;4.20;;
39882;SDS011;55824;52.220;21.040;2023-02-28T01:43:19;6.72;;;4.97;;
39882;SDS011;55824;52.220;21.040;2023-02-28T01:45:45;6.35;;;4.00;;
39882;SDS011;55824;52.220;21.040;2023-02-28T01:48:11;6.32;;;4.30;;
39882;SDS011;55824;52.220;21.040;2023-02-28T01:50:39;6.93;;;5.38;;
39882;SDS011;55824;52.220;21.040;2023-02-28T01:53:06;5.38;;;4.28;;
39882;SDS011;55824;52.220;21.040;2023-02-28T01:55:32;5.90;;;4.28;;
39882;SDS011;55824;52.220;21.040;2023-02-28T01:58:00;6.57;;;4.75;;
39882;SDS011;55824;52.220;21.040;2023-02-28T02:00:28;7.37;;;5.00;;
39882;SDS011;55824;52.220;21.040;2023-02-28T02:02:55;5.90;;;4.28;;
39882;SDS011;55824;52.220;21.040;2023-02-28T02:05:24;6.70;;;4.72;;
39882;SDS011;55824;52.220;21.040;2023-02-28T02:07:51;6.07;;;4.53;;
39882;SDS011;55824;52.220;21.040;2023-02-28T02:10:19;8.30;;;4.85;;
39882;SDS011;55824;52.220;21.040;2023-02-28T02:15:14;6.60;;;4.97;;
39882;SDS011;55824;52.220;21.040;2023-02-28T02:17:44;7.15;;;4.65;;
39882;SDS011;55824;52.220;21.040;2023-02-28T02:23:04;6.63;;;4.60;;
39882;SDS011;55824;52.220;21.040;2023-02-28T02:25:41;6.18;;;4.55;;
39882;SDS011;55824;52.220;21.040;2023-02-28T02:33:12;6.63;;;4.47;;
39882;SDS011;55824;52.220;21.040;2023-02-28T02:40:46;6.70;;;4.75;;
39882;SDS011;55824;52.220;21.040;2023-02-28T02:43:19;7.07;;;4.95;;
39882;SDS011;55824;52.220;21.040;2023-02-28T02:48:13;6.35;;;4.68;;
39882;SDS011;55824;52.220;21.040;2023-02-28T02:50:42;6.57;;;4.65;;
39882;SDS011;55824;52.220;21.040;2023-02-28T02:53:10;6.47;;;4.70;;
39882;SDS011;55824;52.220;21.040;2023-02-28T02:55:38;6.28;;;4.38;;
39882;SDS011;55824;52.220;21.040;2023-02-28T02:58:07;7.57;;;5.15;;
39882;SDS011;55824;52.220;21.040;2023-02-28T03:00:35;6.47;;;4.55;;
39882;SDS011;55824;52.220;21.040;2023-02-28T03:03:03;6.47;;;4.80;;
39882;SDS011;55824;52.220;21.040;2023-02-28T03:05:34;6.45;;;4.82;;
39882;SDS011;55824;52.220;21.040;2023-02-28T03:08:04;7.18;;;5.03;;
39882;SDS011;55824;52.220;21.040;2023-02-28T03:10:49;6.88;;;5.30;;
39882;SDS011;55824;52.220;21.040;2023-02-28T03:13:19;6.28;;;4.25;;
39882;SDS011;55824;52.220;21.040;2023-02-28T03:18:26;7.43;;;5.35;;
39882;SDS011;55824;52.220;21.040;2023-02-28T03:23:44;6.43;;;4.72;;
39882;SDS011;55824;52.220;21.040;2023-02-28T03:26:17;6.38;;;4.80;;
39882;SDS011;55824;52.220;21.040;2023-02-28T03:31:32;6.80;;;5.25;;
39882;SDS011;55824;52.220;21.040;2023-02-28T03:34:04;7.28;;;5.20;;
39882;SDS011;55824;52.220;21.040;2023-02-28T03:36:53;6.57;;;5.05;;
39882;SDS011;55824;52.220;21.040;2023-02-28T03:39:20;7.00;;;5.15;;
39882;SDS011;55824;52.220;21.040;2023-02-28T03:41:56;6.75;;;4.85;;
39882;SDS011;55824;52.220;21.040;2023-02-28T03:44:24;7.03;;;5.20;;
39882;SDS011;55824;52.220;21.040;2023-02-28T03:47:06;7.68;;;4.90;;
39882;SDS011;55824;52.220;21.040;2023-02-28T03:49:35;6.20;;;4.68;;
39882;SDS011;55824;52.220;21.040;2023-02-28T03:52:03;7.65;;;5.35;;
39882;SDS011;55824;52.220;21.040;2023-02-28T03:54:32;6.82;;;4.85;;
39882;SDS011;55824;52.220;21.040;2023-02-28T03:59:44;6.43;;;4.90;;
39882;SDS011;55824;52.220;21.040;2023-02-28T04:02:11;6.20;;;4.90;;
39882;SDS011;55824;52.220;21.040;2023-02-28T04:04:37;7.88;;;5.05;;
39882;SDS011;55824;52.220;21.040;2023-02-28T04:07:05;7.32;;;5.10;;
39882;SDS011;55824;52.220;21.040;2023-02-28T04:09:31;7.35;;;4.97;;
39882;SDS011;55824;52.220;21.040;2023-02-28T04:11:57;7.07;;;5.20;;
39882;SDS011;55824;52.220;21.040;2023-02-28T04:14:23;6.70;;;5.18;;
39882;SDS011;55824;52.220;21.040;2023-02-28T04:16:49;7.43;;;4.97;;
39882;SDS011;55824;52.220;21.040;2023-02-28T04:19:19;6.28;;;5.00;;
39882;SDS011;55824;52.220;21.040;2023-02-28T04:21:49;6.97;;;5.15;;
39882;SDS011;55824;52.220;21.040;2023-02-28T04:24:16;6.20;;;4.57;;
39882;SDS011;55824;52.220;21.040;2023-02-28T04:26:43;6.88;;;5.03;;
39882;SDS011;55824;52.220;21.040;2023-02-28T04:29:10;6.38;;;5.00;;
39882;SDS011;55824;52.220;21.040;2023-02-28T04:31:37;6.78;;;4.88;;
39882;SDS011;55824;52.220;21.040;2023-02-28T04:34:03;6.13;;;5.07;;
39882;SDS011;55824;52.220;21.040;2023-02-28T04:36:29;7.68;;;5.25;;
39882;SDS011;55824;52.220;21.040;2023-02-28T04:38:55;7.45;;;5.18;;
39882;SDS011;55824;52.220;21.040;2023-02-28T04:41:21;7.03;;;5.10;;
39882;SDS011;55824;52.220;21.040;2023-02-28T04:43:47;6.70;;;4.90;;
39882;SDS011;55824;52.220;21.040;2023-02-28T04:46:13;7.50;;;4.90;;
39882;SDS011;55824;52.220;21.040;2023-02-28T04:48:40;7.78;;;5.40;;
39882;SDS011;55824;52.220;21.040;2023-02-28T04:51:07;5.80;;;4.53;;
39882;SDS011;55824;52.220;21.040;2023-02-28T04:53:34;6.47;;;4.93;;
39882;SDS011;55824;52.220;21.040;2023-02-28T04:56:00;6.90;;;4.90;;
39882;SDS011;55824;52.220;21.040;2023-02-28T04:58:26;7.32;;;5.03;;
39882;SDS011;55824;52.220;21.040;2023-02-28T05:00:53;6.28;;;4.50;;
39882;SDS011;55824;52.220;21.040;2023-02-28T05:03:20;6.78;;;5.03;;
39882;SDS011;55824;52.220;21.040;2023-02-28T05:05:47;7.80;;;5.28;;
39882;SDS011;55824;52.220;21.040;2023-02-28T05:08:13;6.45;;;4.85;;
39882;SDS011;55824;52.220;21.040;2023-02-28T05:10:39;6.57;;;5.03;;
39882;SDS011;55824;52.220;21.040;2023-02-28T05:13:05;6.13;;;4.60;;
39882;SDS011;55824;52.220;21.040;2023-02-28T05:15:31;6.38;;;4.95;;
39882;SDS011;55824;52.220;21.040;2023-02-28T05:17:57;6.97;;;5.07;;
39882;SDS011;55824;52.220;21.040;2023-02-28T05:20:23;6.03;;;4.57;;
39882;SDS011;55824;52.220;21.040;2023-02-28T05:22:49;6.85;;;4.82;;
39882;SDS011;55824;52.220;21.040;2023-02-28T05:25:17;5.88;;;4.72;;
39882;SDS011;55824;52.220;21.040;2023-02-28T05:27:43;7.88;;;4.65;;
39882;SDS011;55824;52.220;21.040;2023-02-28T05:30:09;7.90;;;5.60;;
39882;SDS011;55824;52.220;21.040;2023-02-28T05:32:39;6.45;;;5.05;;
39882;SDS011;55824;52.220;21.040;2023-02-28T05:35:08;7.32;;;4.97;;
39882;SDS011;55824;52.220;21.040;2023-02-28T05:37:34;11.27;;;5.20;;
39882;SDS011;55824;52.220;21.040;2023-02-28T05:40:01;7.50;;;5.13;;
39882;SDS011;55824;52.220;21.040;2023-02-28T05:42:27;6.97;;;5.20;;
39882;SDS011;55824;52.220;21.040;2023-02-28T05:44:53;7.30;;;5.18;;
39882;SDS011;55824;52.220;21.040;2023-02-28T05:47:19;6.85;;;5.10;;
39882;SDS011;55824;52.220;21.040;2023-02-28T05:49:45;6.53;;;4.97;;
39882;SDS011;55824;52.220;21.040;2023-02-28T05:52:11;6.97;;;5.43;;
39882;SDS011;55824;52.220;21.040;2023-02-28T05:54:37;6.80;;;4.38;;
39882;SDS011;55824;52.220;21.040;2023-02-28T05:57:03;7.30;;;5.05;;
39882;SDS011;55824;52.220;21.040;2023-02-28T05:59:29;7.00;;;5.30;;
39882;SDS011;55824;52.220;21.040;2023-02-28T06:01:55;6.55;;;4.90;;
39882;SDS011;55824;52.220;21.040;2023-02-28T06:04:21;7.85;;;5.57;;
39882;SDS011;55824;52.220;21.040;2023-02-28T06:06:47;7.57;;;5.40;;
39882;SDS011;55824;52.220;21.040;2023-02-28T06:09:14;7.10;;;5.38;;
39882;SDS011;55824;52.220;21.040;2023-02-28T06:11:40;7.28;;;5.43;;
39882;SDS011;55824;52.220;21.040;2023-02-28T06:14:06;7.28;;;5.38;;
39882;SDS011;55824;52.220;21.040;2023-02-28T06:16:33;7.43;;;5.50;;
39882;SDS011;55824;52.220;21.040;2023-02-28T06:19:00;6.22;;;4.82;;
39882;SDS011;55824;52.220;21.040;2023-02-28T06:21:27;8.30;;;5.85;;
39882;SDS011;55824;52.220;21.040;2023-02-28T06:23:53;8.82;;;6.05;;
39882;SDS011;55824;52.220;21.040;2023-02-28T06:26:19;6.90;;;5.57;;
39882;SDS011;55824;52.220;21.040;2023-02-28T06:28:46;7.60;;;5.20;;
39882;SDS011;55824;52.220;21.040;2023-02-28T06:31:13;7.22;;;5.38;;
39882;SDS011;55824;52.220;21.040;2023-02-28T06:33:39;7.78;;;5.57;;
39882;SDS011;55824;52.220;21.040;2023-02-28T06:36:06;7.80;;;5.57;;
39882;SDS011;55824;52.220;21.040;2023-02-28T06:38:33;7.60;;;5.53;;
39882;SDS011;55824;52.220;21.040;2023-02-28T06:40:59;7.65;;;5.40;;
39882;SDS011;55824;52.220;21.040;2023-02-28T06:43:27;7.75;;;5.65;;
39882;SDS011;55824;52.220;21.040;2023-02-28T06:45:57;8.18;;;6.20;;
39882;SDS011;55824;52.220;21.040;2023-02-28T06:48:23;8.65;;;5.95;;
39882;SDS011;55824;52.220;21.040;2023-02-28T06:50:49;8.52;;;5.95;;
39882;SDS011;55824;52.220;21.040;2023-02-28T06:53:15;7.05;;;5.50;;
39882;SDS011;55824;52.220;21.040;2023-02-28T06:55:41;9.15;;;6.05;;
39882;SDS011;55824;52.220;21.040;2023-02-28T06:58:07;7.53;;;5.95;;
39882;SDS011;55824;52.220;21.040;2023-02-28T07:00:42;7.63;;;5.50;;
39882;SDS011;55824;52.220;21.040;2023-02-28T07:03:08;8.25;;;5.65;;
39882;SDS011;55824;52.220;21.040;2023-02-28T07:05:35;7.88;;;6.10;;
39882;SDS011;55824;52.220;21.040;2023-02-28T07:08:01;8.15;;;6.40;;
39882;SDS011;55824;52.220;21.040;2023-02-28T07:10:28;8.55;;;5.93;;
39882;SDS011;55824;52.220;21.040;2023-02-28T07:12:54;8.73;;;6.43;;
39882;SDS011;55824;52.220;21.040;2023-02-28T07:15:20;8.15;;;6.00;;
39882;SDS011;55824;52.220;21.040;2023-02-28T07:17:46;8.05;;;6.22;;
39882;SDS011;55824;52.220;21.040;2023-02-28T07:20:12;7.88;;;6.75;;
39882;SDS011;55824;52.220;21.040;2023-02-28T07:22:38;7.55;;;6.25;;
39882;SDS011;55824;52.220;21.040;2023-02-28T07:25:04;9.32;;;6.20;;
39882;SDS011;55824;52.220;21.040;2023-02-28T07:27:31;8.15;;;5.88;;
39882;SDS011;55824;52.220;21.040;2023-02-28T07:29:57;7.53;;;6.38;;
39882;SDS011;55824;52.220;21.040;2023-02-28T07:32:26;7.22;;;5.65;;
39882;SDS011;55824;52.220;21.040;2023-02-28T07:34:52;7.47;;;5.65;;
39882;SDS011;55824;52.220;21.040;2023-02-28T07:37:18;7.72;;;5.55;;
39882;SDS011;55824;52.220;21.040;2023-02-28T07:39:44;8.07;;;5.80;;
39882;SDS011;55824;52.220;21.040;2023-02-28T07:42:10;6.75;;;5.75;;
39882;SDS011;55824;52.220;21.040;2023-02-28T07:44:37;7.25;;;5.53;;
39882;SDS011;55824;52.220;21.040;2023-02-28T07:47:08;8.45;;;5.80;;
39882;SDS011;55824;52.220;21.040;2023-02-28T07:49:35;6.72;;;5.38;;
39882;SDS011;55824;52.220;21.040;2023-02-28T07:52:02;7.18;;;5.70;;
39882;SDS011;55824;52.220;21.040;2023-02-28T07:54:28;7.55;;;5.50;;
39882;SDS011;55824;52.220;21.040;2023-02-28T07:56:54;7.57;;;5.45;;
39882;SDS011;55824;52.220;21.040;2023-02-28T07:59:20;7.10;;;5.43;;
39882;SDS011;55824;52.220;21.040;2023-02-28T08:01:46;7.70;;;5.30;;
39882;SDS011;55824;52.220;21.040;2023-02-28T08:04:15;8.30;;;5.15;;
39882;SDS011;55824;52.220;21.040;2023-02-28T08:06:41;8.02;;;5.63;;
39882;SDS011;55824;52.220;21.040;2023-02-28T08:09:07;6.70;;;5.25;;
39882;SDS011;55824;52.220;21.040;2023-02-28T08:11:33;6.78;;;5.40;;
39882;SDS011;55824;52.220;21.040;2023-02-28T08:13:59;7.53;;;5.18;;
39882;SDS011;55824;52.220;21.040;2023-02-28T08:16:25;8.05;;;5.13;;
39882;SDS011;55824;52.220;21.040;2023-02-28T08:18:51;7.85;;;5.60;;
39882;SDS011;55824;52.220;21.040;2023-02-28T08:21:17;8.48;;;5.43;;
39882;SDS011;55824;52.220;21.040;2023-02-28T08:23:45;6.45;;;4.80;;
39882;SDS011;55824;52.220;21.040;2023-02-28T08:26:12;6.13;;;4.80;;
39882;SDS011;55824;52.220;21.040;2023-02-28T08:28:38;6.47;;;5.13;;
39882;SDS011;55824;52.220;21.040;2023-02-28T08:31:08;9.93;;;4.72;;
39882;SDS011;55824;52.220;21.040;2023-02-28T08:33:35;6.43;;;4.70;;
39882;SDS011;55824;52.220;21.040;2023-02-28T08:36:01;7.85;;;4.63;;
39882;SDS011;55824;52.220;21.040;2023-02-28T08:38:27;6.63;;;4.75;;
39882;SDS011;55824;52.220;21.040;2023-02-28T08:40:59;7.80;;;5.15;;
39882;SDS011;55824;52.220;21.040;2023-02-28T08:43:26;6.22;;;4.28;;
39882;SDS011;55824;52.220;21.040;2023-02-28T08:45:52;6.22;;;4.53;;
39882;SDS011;55824;52.220;21.040;2023-02-28T08:48:18;6.22;;;4.78;;
39882;SDS011;55824;52.220;21.040;2023-02-28T08:50:45;4.80;;;3.92;;
39882;SDS011;55824;52.220;21.040;2023-02-28T08:53:11;6.60;;;4.82;;
39882;SDS011;55824;52.220;21.040;2023-02-28T08:55:37;6.07;;;4.43;;
39882;SDS011;55824;52.220;21.040;2023-02-28T08:58:02;5.78;;;4.47;;
39882;SDS011;55824;52.220;21.040;2023-02-28T09:00:28;6.72;;;4.70;;
39882;SDS011;55824;52.220;21.040;2023-02-28T09:02:54;7.55;;;4.35;;
39882;SDS011;55824;52.220;21.040;2023-02-28T09:05:20;6.22;;;4.30;;
39882;SDS011;55824;52.220;21.040;2023-02-28T09:07:46;6.03;;;4.30;;
39882;SDS011;55824;52.220;21.040;2023-02-28T09:10:13;6.80;;;4.43;;
39882;SDS011;55824;52.220;21.040;2023-02-28T09:12:38;5.85;;;4.28;;
39882;SDS011;55824;52.220;21.040;2023-02-28T09:15:05;6.43;;;4.22;;
39882;SDS011;55824;52.220;21.040;2023-02-28T09:17:31;5.72;;;4.07;;
39882;SDS011;55824;52.220;21.040;2023-02-28T09:19:57;5.53;;;4.20;;
39882;SDS011;55824;52.220;21.040;2023-02-28T09:22:23;5.78;;;4.47;;
39882;SDS011;55824;52.220;21.040;2023-02-28T09:24:49;5.97;;;4.13;;
39882;SDS011;55824;52.220;21.040;2023-02-28T09:27:15;7.00;;;4.00;;
39882;SDS011;55824;52.220;21.040;2023-02-28T09:29:41;5.78;;;4.15;;
39882;SDS011;55824;52.220;21.040;2023-02-28T09:32:07;6.68;;;4.43;;
39882;SDS011;55824;52.220;21.040;2023-02-28T09:34:33;5.93;;;4.50;;
39882;SDS011;55824;52.220;21.040;2023-02-28T09:37:01;7.00;;;4.97;;
39882;SDS011;55824;52.220;21.040;2023-02-28T09:39:27;5.90;;;4.32;;
39882;SDS011;55824;52.220;21.040;2023-02-28T09:41:54;6.47;;;4.55;;
39882;SDS011;55824;52.220;21.040;2023-02-28T09:44:35;6.25;;;4.55;;
39882;SDS011;55824;52.220;21.040;2023-02-28T09:47:44;5.30;;;3.97;;
39882;SDS011;55824;52.220;21.040;2023-02-28T09:49:51;5.47;;;4.07;;
39882;SDS011;55824;52.220;21.040;2023-02-28T09:52:18;5.70;;;3.58;;
39882;SDS011;55824;52.220;21.040;2023-02-28T09:54:44;8.93;;;4.07;;
39882;SDS011;55824;52.220;21.040;2023-02-28T09:57:19;5.35;;;3.97;;
39882;SDS011;55824;52.220;21.040;2023-02-28T09:59:59;6.40;;;3.97;;
39882;SDS011;55824;52.220;21.040;2023-02-28T10:05:08;6.00;;;4.00;;
39882;SDS011;55824;52.220;21.040;2023-02-28T10:08:00;5.68;;;4.13;;
39882;SDS011;55824;52.220;21.040;2023-02-28T10:10:32;6.07;;;3.95;;
39882;SDS011;55824;52.220;21.040;2023-02-28T10:13:02;5.15;;;3.53;;
39882;SDS011;55824;52.220;21.040;2023-02-28T10:15:31;6.80;;;3.72;;
39882;SDS011;55824;52.220;21.040;2023-02-28T10:17:59;5.15;;;3.65;;
39882;SDS011;55824;52.220;21.040;2023-02-28T10:20:26;5.78;;;4.03;;
39882;SDS011;55824;52.220;21.040;2023-02-28T10:25:39;5.10;;;3.83;;
39882;SDS011;55824;52.220;21.040;2023-02-28T10:28:08;5.43;;;3.22;;
39882;SDS011;55824;52.220;21.040;2023-02-28T10:30:36;5.75;;;4.20;;
39882;SDS011;55824;52.220;21.040;2023-02-28T10:33:03;5.72;;;3.55;;
39882;SDS011;55824;52.220;21.040;2023-02-28T10:35:29;5.75;;;3.78;;
39882;SDS011;55824;52.220;21.040;2023-02-28T10:37:58;5.38;;;3.47;;
39882;SDS011;55824;52.220;21.040;2023-02-28T10:45:32;5.38;;;3.75;;
39882;SDS011;55824;52.220;21.040;2023-02-28T10:48:25;4.78;;;3.60;;
39882;SDS011;55824;52.220;21.040;2023-02-28T10:50:52;4.22;;;3.25;;
39882;SDS011;55824;52.220;21.040;2023-02-28T11:00:59;5.65;;;3.92;;
39882;SDS011;55824;52.220;21.040;2023-02-28T11:03:30;5.03;;;3.60;;
39882;SDS011;55824;52.220;21.040;2023-02-28T11:05:57;4.55;;;3.42;;
39882;SDS011;55824;52.220;21.040;2023-02-28T11:08:23;5.07;;;3.78;;
39882;SDS011;55824;52.220;21.040;2023-02-28T11:10:56;6.45;;;3.70;;
39882;SDS011;55824;52.220;21.040;2023-02-28T11:13:29;5.05;;;3.65;;
39882;SDS011;55824;52.220;21.040;2023-02-28T11:15:57;7.05;;;4.03;;
39882;SDS011;55824;52.220;21.040;2023-02-28T11:18:25;5.43;;;3.83;;
39882;SDS011;55824;52.220;21.040;2023-02-28T11:20:53;4.80;;;3.40;;
39882;SDS011;55824;52.220;21.040;2023-02-28T11:23:19;4.82;;;3.38;;
39882;SDS011;55824;52.220;21.040;2023-02-28T11:25:50;5.18;;;3.67;;
39882;SDS011;55824;52.220;21.040;2023-02-28T11:33:42;5.13;;;3.58;;
39882;SDS011;55824;52.220;21.040;2023-02-28T11:36:17;4.43;;;3.50;;
39882;SDS011;55824;52.220;21.040;2023-02-28T11:38:44;5.00;;;3.38;;
39882;SDS011;55824;52.220;21.040;2023-02-28T11:43:53;3.90;;;2.80;;
39882;SDS011;55824;52.220;21.040;2023-02-28T11:46:31;4.40;;;3.20;;
39882;SDS011;55824;52.220;21.040;2023-02-28T11:49:10;5.35;;;3.35;;
39882;SDS011;55824;52.220;21.040;2023-02-28T11:52:24;5.03;;;2.97;;
39882;SDS011;55824;52.220;21.040;2023-02-28T12:02:26;4.80;;;3.33;;
39882;SDS011;55824;52.220;21.040;2023-02-28T12:05:11;4.85;;;3.20;;
39882;SDS011;55824;52.220;21.040;2023-02-28T12:10:26;6.03;;;3.78;;
39882;SDS011;55824;52.220;21.040;2023-02-28T12:18:39;4.43;;;2.97;;
39882;SDS011;55824;52.220;21.040;2023-02-28T12:21:13;5.57;;;3.60;;
39882;SDS011;55824;52.220;21.040;2023-02-28T12:23:54;5.90;;;3.13;;
39882;SDS011;55824;52.220;21.040;2023-02-28T12:26:25;4.70;;;3.33;;
39882;SDS011;55824;52.220;21.040;2023-02-28T12:28:57;4.30;;;3.15;;
39882;SDS011;55824;52.220;21.040;2023-02-28T12:31:35;4.80;;;3.13;;
39882;SDS011;55824;52.220;21.040;2023-02-28T12:34:06;5.15;;;3.55;;
39882;SDS011;55824;52.220;21.040;2023-02-28T12:36:33;4.50;;;3.35;;
39882;SDS011;55824;52.220;21.040;2023-02-28T12:43:55;6.18;;;3.83;;
39882;SDS011;55824;52.220;21.040;2023-02-28T12:46:33;4.47;;;3.50;;
39882;SDS011;55824;52.220;21.040;2023-02-28T12:49:02;5.07;;;3.35;;
39882;SDS011;55824;52.220;21.040;2023-02-28T12:51:30;4.55;;;3.35;;
39882;SDS011;55824;52.220;21.040;2023-02-28T12:57:06;6.50;;;3.70;;
39882;SDS011;55824;52.220;21.040;2023-02-28T13:09:59;4.75;;;3.90;;
39882;SDS011;55824;52.220;21.040;2023-02-28T13:12:25;5.28;;;3.42;;
39882;SDS011;55824;52.220;21.040;2023-02-28T13:15:01;5.20;;;3.40;;
39882;SDS011;55824;52.220;21.040;2023-02-28T13:17:28;5.10;;;3.35;;
39882;SDS011;55824;52.220;21.040;2023-02-28T13:27:44;5.20;;;3.35;;
39882;SDS011;55824;52.220;21.040;2023-02-28T13:35:43;5.03;;;3.60;;
39882;SDS011;55824;52.220;21.040;2023-02-28T13:38:17;6.05;;;3.97;;
39882;SDS011;55824;52.220;21.040;2023-02-28T13:40:47;4.85;;;3.30;;
39882;SDS011;55824;52.220;21.040;2023-02-28T13:43:13;4.93;;;3.55;;
39882;SDS011;55824;52.220;21.040;2023-02-28T13:45:45;6.47;;;3.63;;
39882;SDS011;55824;52.220;21.040;2023-02-28T13:48:28;5.53;;;3.85;;
39882;SDS011;55824;52.220;21.040;2023-02-28T13:50:55;5.10;;;3.30;;
39882;SDS011;55824;52.220;21.040;2023-02-28T13:53:30;6.03;;;3.97;;
39882;SDS011;55824;52.220;21.040;2023-02-28T14:11:36;5.60;;;3.55;;
39882;SDS011;55824;52.220;21.040;2023-02-28T14:14:03;5.88;;;3.67;;
39882;SDS011;55824;52.220;21.040;2023-02-28T14:16:39;5.10;;;3.83;;
39882;SDS011;55824;52.220;21.040;2023-02-28T14:19:11;5.50;;;3.97;;
39882;SDS011;55824;52.220;21.040;2023-02-28T14:21:39;6.47;;;4.15;;
39882;SDS011;55824;52.220;21.040;2023-02-28T14:24:24;5.68;;;3.88;;
39882;SDS011;55824;52.220;21.040;2023-02-28T14:37:15;5.35;;;3.72;;
39882;SDS011;55824;52.220;21.040;2023-02-28T14:39:42;6.70;;;4.35;;
39882;SDS011;55824;52.220;21.040;2023-02-28T14:42:28;5.82;;;3.70;;
39882;SDS011;55824;52.220;21.040;2023-02-28T14:44:54;5.28;;;3.92;;
39882;SDS011;55824;52.220;21.040;2023-02-28T14:47:24;7.07;;;3.80;;
39882;SDS011;55824;52.220;21.040;2023-02-28T14:49:52;5.85;;;3.92;;
39882;SDS011;55824;52.220;21.040;2023-02-28T14:52:20;5.10;;;3.65;;
39882;SDS011;55824;52.220;21.040;2023-02-28T14:54:51;5.75;;;3.80;;
39882;SDS011;55824;52.220;21.040;2023-02-28T14:57:22;5.28;;;3.70;;
39882;SDS011;55824;52.220;21.040;2023-02-28T14:59:56;6.22;;;3.65;;
39882;SDS011;55824;52.220;21.040;2023-02-28T15:02:23;5.00;;;3.78;;
39882;SDS011;55824;52.220;21.040;2023-02-28T15:04:53;5.57;;;3.33;;
39882;SDS011;55824;52.220;21.040;2023-02-28T15:07:20;5.07;;;3.78;;
39882;SDS011;55824;52.220;21.040;2023-02-28T15:10:06;6.07;;;3.55;;
39882;SDS011;55824;52.220;21.040;2023-02-28T15:12:32;6.30;;;3.72;;
39882;SDS011;55824;52.220;21.040;2023-02-28T15:14:58;6.18;;;4.20;;
39882;SDS011;55824;52.220;21.040;2023-02-28T15:17:24;5.60;;;3.75;;
39882;SDS011;55824;52.220;21.040;2023-02-28T15:19:51;7.15;;;4.28;;
39882;SDS011;55824;52.220;21.040;2023-02-28T15:22:26;6.07;;;3.65;;
39882;SDS011;55824;52.220;21.040;2023-02-28T15:24:54;5.65;;;3.90;;
39882;SDS011;55824;52.220;21.040;2023-02-28T15:27:21;6.43;;;3.70;;
39882;SDS011;55824;52.220;21.040;2023-02-28T15:29:48;5.10;;;3.33;;
39882;SDS011;55824;52.220;21.040;2023-02-28T15:32:29;5.38;;;3.70;;
39882;SDS011;55824;52.220;21.040;2023-02-28T15:34:56;5.35;;;3.58;;
39882;SDS011;55824;52.220;21.040;2023-02-28T15:39:56;6.30;;;4.03;;
39882;SDS011;55824;52.220;21.040;2023-02-28T15:42:23;6.47;;;4.28;;
39882;SDS011;55824;52.220;21.040;2023-02-28T15:44:52;5.38;;;4.13;;
39882;SDS011;55824;52.220;21.040;2023-02-28T15:47:19;5.95;;;3.60;;
39882;SDS011;55824;52.220;21.040;2023-02-28T15:52:29;5.38;;;4.05;;
39882;SDS011;55824;52.220;21.040;2023-02-28T15:54:59;6.20;;;3.72;;
39882;SDS011;55824;52.220;21.040;2023-02-28T15:57:33;5.72;;;3.58;;
39882;SDS011;55824;52.220;21.040;2023-02-28T16:00:03;5.38;;;3.70;;
39882;SDS011;55824;52.220;21.040;2023-02-28T16:02:34;6.20;;;4.20;;
39882;SDS011;55824;52.220;21.040;2023-02-28T16:07:37;4.88;;;3.60;;
39882;SDS011;55824;52.220;21.040;2023-02-28T16:10:04;5.15;;;3.90;;
39882;SDS011;55824;52.220;21.040;2023-02-28T16:12:31;5.75;;;3.90;;
39882;SDS011;55824;52.220;21.040;2023-02-28T16:14:58;5.15;;;3.90;;
39882;SDS011;55824;52.220;21.040;2023-02-28T16:19:53;5.70;;;4.03;;
39882;SDS011;55824;52.220;21.040;2023-02-28T16:22:20;5.57;;;3.80;;
39882;SDS011;55824;52.220;21.040;2023-02-28T16:24:46;6.78;;;4.20;;
39882;SDS011;55824;52.220;21.040;2023-02-28T16:27:15;6.40;;;3.75;;
39882;SDS011;55824;52.220;21.040;2023-02-28T16:29:42;4.82;;;3.60;;
39882;SDS011;55824;52.220;21.040;2023-02-28T16:32:10;4.57;;;3.58;;
39882;SDS011;55824;52.220;21.040;2023-02-28T16:34:37;6.07;;;3.97;;
39882;SDS011;55824;52.220;21.040;2023-02-28T16:37:04;6.13;;;4.20;;
39882;SDS011;55824;52.220;21.040;2023-02-28T16:39:30;5.97;;;3.90;;
39882;SDS011;55824;52.220;21.040;2023-02-28T16:41:56;5.40;;;3.88;;
39882;SDS011;55824;52.220;21.040;2023-02-28T16:44:29;6.13;;;4.05;;
39882;SDS011;55824;52.220;21.040;2023-02-28T16:46:55;5.85;;;3.83;;
39882;SDS011;55824;52.220;21.040;2023-02-28T16:49:21;6.55;;;4.60;;
39882;SDS011;55824;52.220;21.040;2023-02-28T16:51:47;6.45;;;3.83;;
39882;SDS011;55824;52.220;21.040;2023-02-28T16:54:13;6.18;;;3.95;;
39882;SDS011;55824;52.220;21.040;2023-02-28T16:56:40;6.00;;;3.88;;
39882;SDS011;55824;52.220;21.040;2023-02-28T16:59:08;6.05;;;4.53;;